sensor_id;sensor_type;location;lat;lon;timestamp;pressure;altitude;pressure_sealevel;temperature;humidity
86038;BME280;76634;47.732;7.348;2024-03-29T00:01:14;96161.84;;;7.50;52.50
86038;BME280;76634;47.732;7.348;2024-03-29T00:03:39;96155.25;;;7.52;52.76
86038;BME280;76634;47.732;7.348;2024-03-29T00:06:04;96154.41;;;7.47;52.80
86038;BME280;76634;47.732;7.348;2024-03-29T00:08:30;96137.25;;;7.49;52.55
86038;BME280;76634;47.732;7.348;2024-03-29T00:10:55;96129.31;;;7.49;52.70
86038;BME280;76634;47.732;7.348;2024-03-29T00:13:20;96138.09;;;7.55;52.64
86038;BME280;76634;47.732;7.348;2024-03-29T00:15:46;96132.56;;;7.56;52.90
86038;BME280;76634;47.732;7.348;2024-03-29T00:18:11;96127.66;;;7.65;52.31
86038;BME280;76634;47.732;7.348;2024-03-29T00:20:36;96121.56;;;7.65;52.22
86038;BME280;76634;47.732;7.348;2024-03-29T00:23:02;96118.63;;;7.61;52.69
86038;BME280;76634;47.732;7.348;2024-03-29T00:25:27;96122.31;;;7.60;53.19
86038;BME280;76634;47.732;7.348;2024-03-29T00:27:52;96121.81;;;7.63;52.72
86038;BME280;76634;47.732;7.348;2024-03-29T00:30:18;96118.38;;;7.62;52.94
86038;BME280;76634;47.732;7.348;2024-03-29T00:32:43;96104.94;;;7.64;52.84
86038;BME280;76634;47.732;7.348;2024-03-29T00:35:08;96112.84;;;7.64;53.02
86038;BME280;76634;47.732;7.348;2024-03-29T00:37:34;96117.56;;;7.62;53.35
86038;BME280;76634;47.732;7.348;2024-03-29T00:39:59;96119.97;;;7.63;53.22
86038;BME280;76634;47.732;7.348;2024-03-29T00:42:24;96123.66;;;7.62;52.91
86038;BME280;76634;47.732;7.348;2024-03-29T00:44:50;96118.38;;;7.62;53.65
86038;BME280;76634;47.732;7.348;2024-03-29T00:47:16;96118.88;;;7.59;53.72
86038;BME280;76634;47.732;7.348;2024-03-29T00:49:41;96145.59;;;7.63;53.40
86038;BME280;76634;47.732;7.348;2024-03-29T00:52:06;96143.88;;;7.74;52.80
86038;BME280;76634;47.732;7.348;2024-03-29T00:54:32;96147.13;;;7.81;52.71
86038;BME280;76634;47.732;7.348;2024-03-29T00:56:57;96142.09;;;7.79;52.68
86038;BME280;76634;47.732;7.348;2024-03-29T00:59:23;96136.22;;;7.77;52.60
86038;BME280;76634;47.732;7.348;2024-03-29T01:01:49;96146.63;;;7.84;52.75
86038;BME280;76634;47.732;7.348;2024-03-29T01:04:14;96143.91;;;7.79;52.64
86038;BME280;76634;47.732;7.348;2024-03-29T01:06:40;96150.78;;;7.80;52.91
86038;BME280;76634;47.732;7.348;2024-03-29T01:09:05;96148.09;;;7.75;52.89
86038;BME280;76634;47.732;7.348;2024-03-29T01:11:31;96150.97;;;7.73;53.21
86038;BME280;76634;47.732;7.348;2024-03-29T01:13:56;96139.13;;;7.76;53.04
86038;BME280;76634;47.732;7.348;2024-03-29T01:16:22;96146.81;;;7.77;53.43
86038;BME280;76634;47.732;7.348;2024-03-29T01:18:48;96141.25;;;7.79;53.40
86038;BME280;76634;47.732;7.348;2024-03-29T01:21:13;96127.50;;;7.77;53.52
86038;BME280;76634;47.732;7.348;2024-03-29T01:23:39;96129.91;;;7.78;53.29
86038;BME280;76634;47.732;7.348;2024-03-29T01:26:06;96115.94;;;7.83;53.04
86038;BME280;76634;47.732;7.348;2024-03-29T01:28:31;96110.41;;;7.85;53.09
86038;BME280;76634;47.732;7.348;2024-03-29T01:30:57;96114.72;;;7.91;53.08
86038;BME280;76634;47.732;7.348;2024-03-29T01:33:26;96110.50;;;7.95;52.96
86038;BME280;76634;47.732;7.348;2024-03-29T01:35:51;96117.69;;;8.00;52.82
86038;BME280;76634;47.732;7.348;2024-03-29T01:38:16;96116.59;;;7.95;53.04
86038;BME280;76634;47.732;7.348;2024-03-29T01:40:42;96107.66;;;8.02;52.94
86038;BME280;76634;47.732;7.348;2024-03-29T01:43:08;96120.34;;;8.00;53.15
86038;BME280;76634;47.732;7.348;2024-03-29T01:45:38;96122.47;;;8.03;52.80
86038;BME280;76634;47.732;7.348;2024-03-29T01:48:05;96126.22;;;8.07;52.56
86038;BME280;76634;47.732;7.348;2024-03-29T01:50:32;96123.56;;;8.07;52.68
86038;BME280;76634;47.732;7.348;2024-03-29T01:52:58;96119.38;;;8.11;52.49
86038;BME280;76634;47.732;7.348;2024-03-29T01:55:23;96112.56;;;8.20;51.80
86038;BME280;76634;47.732;7.348;2024-03-29T01:57:50;96111.28;;;8.23;51.81
86038;BME280;76634;47.732;7.348;2024-03-29T02:00:16;96110.25;;;8.29;51.08
86038;BME280;76634;47.732;7.348;2024-03-29T02:02:41;96101.56;;;8.34;50.79
86038;BME280;76634;47.732;7.348;2024-03-29T02:05:06;96096.56;;;8.37;51.14
86038;BME280;76634;47.732;7.348;2024-03-29T02:07:32;96101.56;;;8.34;51.24
86038;BME280;76634;47.732;7.348;2024-03-29T02:09:57;96099.66;;;8.29;51.42
86038;BME280;76634;47.732;7.348;2024-03-29T02:12:23;96101.28;;;8.30;51.41
86038;BME280;76634;47.732;7.348;2024-03-29T02:14:48;96108.41;;;8.29;51.46
86038;BME280;76634;47.732;7.348;2024-03-29T02:17:14;96104.44;;;8.32;51.66
86038;BME280;76634;47.732;7.348;2024-03-29T02:19:39;96093.66;;;8.39;50.99
86038;BME280;76634;47.732;7.348;2024-03-29T02:22:05;96089.97;;;8.40;50.82
86038;BME280;76634;47.732;7.348;2024-03-29T02:24:33;96091.88;;;8.44;50.71
86038;BME280;76634;47.732;7.348;2024-03-29T02:26:58;96088.41;;;8.44;50.67
86038;BME280;76634;47.732;7.348;2024-03-29T02:29:24;96073.09;;;8.46;50.24
86038;BME280;76634;47.732;7.348;2024-03-29T02:31:50;96071.81;;;8.48;50.17
86038;BME280;76634;47.732;7.348;2024-03-29T02:34:15;96067.31;;;8.49;50.09
86038;BME280;76634;47.732;7.348;2024-03-29T02:36:41;96072.91;;;8.53;49.86
86038;BME280;76634;47.732;7.348;2024-03-29T02:39:09;96077.66;;;8.56;49.45
86038;BME280;76634;47.732;7.348;2024-03-29T02:41:35;96066.84;;;8.57;49.41
86038;BME280;76634;47.732;7.348;2024-03-29T02:44:00;96072.66;;;8.59;49.50
86038;BME280;76634;47.732;7.348;2024-03-29T02:46:25;96081.66;;;8.58;49.73
86038;BME280;76634;47.732;7.348;2024-03-29T02:48:51;96087.22;;;8.62;49.30
86038;BME280;76634;47.732;7.348;2024-03-29T02:51:16;96094.38;;;8.61;49.35
86038;BME280;76634;47.732;7.348;2024-03-29T02:53:41;96093.06;;;8.64;49.20
86038;BME280;76634;47.732;7.348;2024-03-29T02:56:07;96097.59;;;8.69;49.27
86038;BME280;76634;47.732;7.348;2024-03-29T02:58:34;96084.63;;;8.67;49.39
86038;BME280;76634;47.732;7.348;2024-03-29T03:01:07;96098.69;;;8.73;49.50
86038;BME280;76634;47.732;7.348;2024-03-29T03:03:33;96082.53;;;8.74;48.81
86038;BME280;76634;47.732;7.348;2024-03-29T03:05:58;96093.66;;;8.76;48.84
86038;BME280;76634;47.732;7.348;2024-03-29T03:08:23;96088.38;;;8.76;48.58
86038;BME280;76634;47.732;7.348;2024-03-29T03:11:27;96097.91;;;8.82;48.19
86038;BME280;76634;47.732;7.348;2024-03-29T03:13:52;96084.97;;;8.86;48.00
86038;BME280;76634;47.732;7.348;2024-03-29T03:16:18;96096.09;;;8.88;48.44
86038;BME280;76634;47.732;7.348;2024-03-29T03:18:43;96113.06;;;8.92;47.84
86038;BME280;76634;47.732;7.348;2024-03-29T03:21:09;96081.59;;;8.96;47.01
86038;BME280;76634;47.732;7.348;2024-03-29T03:23:34;96076.56;;;8.99;46.91
86038;BME280;76634;47.732;7.348;2024-03-29T03:26:02;96086.09;;;9.00;47.22
86038;BME280;76634;47.732;7.348;2024-03-29T03:28:29;96084.03;;;9.08;46.57
86038;BME280;76634;47.732;7.348;2024-03-29T03:30:54;96069.47;;;9.15;46.27
86038;BME280;76634;47.732;7.348;2024-03-29T03:33:20;96069.22;;;9.12;46.34
86038;BME280;76634;47.732;7.348;2024-03-29T03:35:46;96062.56;;;9.09;46.80
86038;BME280;76634;47.732;7.348;2024-03-29T03:38:12;96051.19;;;9.14;46.61
86038;BME280;76634;47.732;7.348;2024-03-29T03:40:39;96052.81;;;9.25;45.47
86038;BME280;76634;47.732;7.348;2024-03-29T03:43:05;96048.88;;;9.28;45.87
86038;BME280;76634;47.732;7.348;2024-03-29T03:45:39;96047.53;;;9.25;45.69
86038;BME280;76634;47.732;7.348;2024-03-29T03:48:08;96079.34;;;9.35;45.82
86038;BME280;76634;47.732;7.348;2024-03-29T03:50:34;96057.66;;;9.39;45.22
86038;BME280;76634;47.732;7.348;2024-03-29T03:53:00;96055.50;;;9.35;45.43
86038;BME280;76634;47.732;7.348;2024-03-29T03:55:25;96049.72;;;9.39;45.33
86038;BME280;76634;47.732;7.348;2024-03-29T03:57:52;96053.13;;;9.39;45.32
86038;BME280;76634;47.732;7.348;2024-03-29T04:00:19;96069.31;;;9.43;45.49
86038;BME280;76634;47.732;7.348;2024-03-29T04:02:50;96083.34;;;9.43;45.16
86038;BME280;76634;47.732;7.348;2024-03-29T04:05:19;96084.69;;;9.46;45.36
86038;BME280;76634;47.732;7.348;2024-03-29T04:07:45;96097.94;;;9.51;45.37
86038;BME280;76634;47.732;7.348;2024-03-29T04:10:11;96097.41;;;9.49;45.17
86038;BME280;76634;47.732;7.348;2024-03-29T04:12:37;96104.84;;;9.52;45.09
86038;BME280;76634;47.732;7.348;2024-03-29T04:15:02;96115.44;;;9.52;45.88
86038;BME280;76634;47.732;7.348;2024-03-29T04:17:28;96112.81;;;9.57;45.15
86038;BME280;76634;47.732;7.348;2024-03-29T04:19:56;96112.81;;;9.57;45.18
86038;BME280;76634;47.732;7.348;2024-03-29T04:22:21;96109.09;;;9.58;45.14
86038;BME280;76634;47.732;7.348;2024-03-29T04:24:46;96126.59;;;9.59;45.83
86038;BME280;76634;47.732;7.348;2024-03-29T04:27:12;96133.75;;;9.59;46.16
86038;BME280;76634;47.732;7.348;2024-03-29T04:29:37;96124.44;;;9.51;46.70
86038;BME280;76634;47.732;7.348;2024-03-29T04:32:03;96141.09;;;9.41;47.02
86038;BME280;76634;47.732;7.348;2024-03-29T04:34:28;96145.06;;;9.33;47.46
86038;BME280;76634;47.732;7.348;2024-03-29T04:36:53;96139.72;;;9.23;47.76
86038;BME280;76634;47.732;7.348;2024-03-29T04:39:19;96137.03;;;9.18;48.77
86038;BME280;76634;47.732;7.348;2024-03-29T04:41:44;96120.31;;;9.12;49.33
86038;BME280;76634;47.732;7.348;2024-03-29T04:44:11;96134.91;;;9.10;49.33
86038;BME280;76634;47.732;7.348;2024-03-29T04:46:38;96146.78;;;9.07;49.57
86038;BME280;76634;47.732;7.348;2024-03-29T04:49:04;96133.56;;;9.07;49.27
86038;BME280;76634;47.732;7.348;2024-03-29T04:51:29;96143.03;;;8.98;50.35
86038;BME280;76634;47.732;7.348;2024-03-29T04:53:55;96133.19;;;8.93;50.69
86038;BME280;76634;47.732;7.348;2024-03-29T04:56:20;96162.09;;;9.00;50.88
86038;BME280;76634;47.732;7.348;2024-03-29T04:58:45;96133.81;;;9.06;50.38
86038;BME280;76634;47.732;7.348;2024-03-29T05:01:11;96144.88;;;8.97;51.16
86038;BME280;76634;47.732;7.348;2024-03-29T05:03:36;96151.16;;;8.86;52.14
86038;BME280;76634;47.732;7.348;2024-03-29T05:06:02;96177.88;;;8.85;52.88
86038;BME280;76634;47.732;7.348;2024-03-29T05:08:27;96174.84;;;8.65;54.23
86038;BME280;76634;47.732;7.348;2024-03-29T05:10:52;96185.25;;;8.45;56.48
86038;BME280;76634;47.732;7.348;2024-03-29T05:13:18;96188.72;;;8.18;57.91
86038;BME280;76634;47.732;7.348;2024-03-29T05:15:45;96179.09;;;8.07;58.04
86038;BME280;76634;47.732;7.348;2024-03-29T05:18:10;96176.19;;;7.81;61.63
86038;BME280;76634;47.732;7.348;2024-03-29T05:20:36;96181.78;;;7.62;62.46
86038;BME280;76634;47.732;7.348;2024-03-29T05:23:01;96184.38;;;7.57;63.96
86038;BME280;76634;47.732;7.348;2024-03-29T05:25:27;96178.44;;;7.45;65.78
86038;BME280;76634;47.732;7.348;2024-03-29T05:27:52;96174.59;;;7.36;65.66
86038;BME280;76634;47.732;7.348;2024-03-29T05:30:18;96172.34;;;7.22;68.29
86038;BME280;76634;47.732;7.348;2024-03-29T05:32:44;96175.38;;;7.14;69.46
86038;BME280;76634;47.732;7.348;2024-03-29T05:35:10;96164.34;;;7.17;69.42
86038;BME280;76634;47.732;7.348;2024-03-29T05:37:36;96163.91;;;7.25;70.95
86038;BME280;76634;47.732;7.348;2024-03-29T05:40:02;96157.66;;;7.09;73.08
86038;BME280;76634;47.732;7.348;2024-03-29T05:42:31;96158.44;;;7.10;75.46
86038;BME280;76634;47.732;7.348;2024-03-29T05:44:56;96170.47;;;7.01;76.62
86038;BME280;76634;47.732;7.348;2024-03-29T05:47:22;96165.72;;;7.03;76.38
86038;BME280;76634;47.732;7.348;2024-03-29T05:49:48;96156.41;;;6.95;78.51
86038;BME280;76634;47.732;7.348;2024-03-29T05:52:14;96118.63;;;6.95;79.08
86038;BME280;76634;47.732;7.348;2024-03-29T05:54:43;96107.66;;;7.03;79.26
86038;BME280;76634;47.732;7.348;2024-03-29T05:57:08;96118.22;;;6.81;80.11
86038;BME280;76634;47.732;7.348;2024-03-29T05:59:34;96122.34;;;6.93;80.50
86038;BME280;76634;47.732;7.348;2024-03-29T06:02:00;96140.38;;;7.02;80.01
86038;BME280;76634;47.732;7.348;2024-03-29T06:04:25;96148.81;;;6.82;78.95
86038;BME280;76634;47.732;7.348;2024-03-29T06:07:04;96150.56;;;6.93;79.11
86038;BME280;76634;47.732;7.348;2024-03-29T06:09:29;96152.56;;;6.86;79.01
86038;BME280;76634;47.732;7.348;2024-03-29T06:11:56;96149.19;;;6.90;79.39
86038;BME280;76634;47.732;7.348;2024-03-29T06:14:23;96185.91;;;6.92;79.68
86038;BME280;76634;47.732;7.348;2024-03-29T06:17:07;96195.75;;;6.97;77.90
86038;BME280;76634;47.732;7.348;2024-03-29T06:19:48;96209.63;;;7.09;76.04
86038;BME280;76634;47.732;7.348;2024-03-29T06:22:14;96203.44;;;7.20;74.29
86038;BME280;76634;47.732;7.348;2024-03-29T06:24:40;96208.22;;;7.23;75.22
86038;BME280;76634;47.732;7.348;2024-03-29T06:27:08;96209.44;;;7.33;75.18
86038;BME280;76634;47.732;7.348;2024-03-29T06:29:34;96223.13;;;7.52;72.62
86038;BME280;76634;47.732;7.348;2024-03-29T06:31:59;96222.63;;;7.55;73.79
86038;BME280;76634;47.732;7.348;2024-03-29T06:34:24;96228.25;;;7.58;72.79
86038;BME280;76634;47.732;7.348;2024-03-29T06:36:49;96248.63;;;7.41;74.89
86038;BME280;76634;47.732;7.348;2024-03-29T06:39:15;96230.56;;;7.55;72.23
86038;BME280;76634;47.732;7.348;2024-03-29T06:41:40;96229.34;;;7.62;70.95
86038;BME280;76634;47.732;7.348;2024-03-29T06:44:05;96234.03;;;7.55;71.58
86038;BME280;76634;47.732;7.348;2024-03-29T06:46:32;96227.50;;;7.63;73.03
86038;BME280;76634;47.732;7.348;2024-03-29T06:48:59;96237.81;;;7.65;74.73
86038;BME280;76634;47.732;7.348;2024-03-29T06:51:24;96235.09;;;8.04;73.59
86038;BME280;76634;47.732;7.348;2024-03-29T06:53:50;96247.25;;;8.05;75.33
86038;BME280;76634;47.732;7.348;2024-03-29T06:56:15;96233.28;;;8.09;74.40
86038;BME280;76634;47.732;7.348;2024-03-29T06:58:41;96243.47;;;7.95;73.49
86038;BME280;76634;47.732;7.348;2024-03-29T07:01:06;96236.75;;;7.88;72.77
86038;BME280;76634;47.732;7.348;2024-03-29T07:03:32;96237.41;;;7.73;74.98
86038;BME280;76634;47.732;7.348;2024-03-29T07:05:57;96236.34;;;7.74;77.04
86038;BME280;76634;47.732;7.348;2024-03-29T07:08:23;96231.19;;;7.84;78.73
86038;BME280;76634;47.732;7.348;2024-03-29T07:10:59;96238.19;;;7.95;78.12
86038;BME280;76634;47.732;7.348;2024-03-29T07:13:25;96252.31;;;8.06;77.52
86038;BME280;76634;47.732;7.348;2024-03-29T07:15:51;96265.84;;;8.10;77.33
86038;BME280;76634;47.732;7.348;2024-03-29T07:18:17;96267.72;;;8.14;78.21
86038;BME280;76634;47.732;7.348;2024-03-29T07:20:43;96273.13;;;8.25;77.32
86038;BME280;76634;47.732;7.348;2024-03-29T07:23:08;96285.00;;;8.22;77.25
86038;BME280;76634;47.732;7.348;2024-03-29T07:25:33;96286.34;;;8.25;75.89
86038;BME280;76634;47.732;7.348;2024-03-29T07:27:58;96292.94;;;8.22;76.22
86038;BME280;76634;47.732;7.348;2024-03-29T07:30:24;96291.59;;;8.20;77.40
86038;BME280;76634;47.732;7.348;2024-03-29T07:32:49;96302.47;;;8.23;77.98
86038;BME280;76634;47.732;7.348;2024-03-29T07:35:14;96303.66;;;8.32;75.90
86038;BME280;76634;47.732;7.348;2024-03-29T07:37:42;96316.66;;;8.39;75.33
86038;BME280;76634;47.732;7.348;2024-03-29T07:40:11;96323.22;;;8.37;72.71
86038;BME280;76634;47.732;7.348;2024-03-29T07:42:37;96324.22;;;8.30;73.13
86038;BME280;76634;47.732;7.348;2024-03-29T07:45:02;96327.31;;;8.22;72.94
86038;BME280;76634;47.732;7.348;2024-03-29T07:47:28;96330.03;;;8.27;74.31
86038;BME280;76634;47.732;7.348;2024-03-29T07:49:53;96338.31;;;8.36;71.58
86038;BME280;76634;47.732;7.348;2024-03-29T07:52:18;96334.28;;;8.28;70.75
86038;BME280;76634;47.732;7.348;2024-03-29T07:54:44;96339.81;;;8.27;69.41
86038;BME280;76634;47.732;7.348;2024-03-29T07:57:10;96345.81;;;8.22;68.71
86038;BME280;76634;47.732;7.348;2024-03-29T07:59:36;96353.47;;;8.19;71.60
86038;BME280;76634;47.732;7.348;2024-03-29T08:02:01;96347.00;;;8.31;68.78
86038;BME280;76634;47.732;7.348;2024-03-29T08:04:27;96323.56;;;8.40;67.47
86038;BME280;76634;47.732;7.348;2024-03-29T08:06:53;96337.41;;;8.25;69.46
86038;BME280;76634;47.732;7.348;2024-03-29T08:09:19;96317.06;;;8.26;71.60
86038;BME280;76634;47.732;7.348;2024-03-29T08:11:44;96265.00;;;8.31;73.74
86038;BME280;76634;47.732;7.348;2024-03-29T08:14:10;96344.59;;;8.30;72.44
86038;BME280;76634;47.732;7.348;2024-03-29T08:16:36;96314.09;;;8.44;71.51
86038;BME280;76634;47.732;7.348;2024-03-29T08:19:01;96336.16;;;8.55;71.82
86038;BME280;76634;47.732;7.348;2024-03-29T08:21:27;96338.47;;;8.74;71.53
86038;BME280;76634;47.732;7.348;2024-03-29T08:23:52;96339.06;;;8.81;68.58
86038;BME280;76634;47.732;7.348;2024-03-29T08:26:20;96319.56;;;8.92;68.90
86038;BME280;76634;47.732;7.348;2024-03-29T08:28:46;96341.56;;;8.93;68.45
86038;BME280;76634;47.732;7.348;2024-03-29T08:31:11;96335.84;;;9.06;68.46
86038;BME280;76634;47.732;7.348;2024-03-29T08:33:37;96337.41;;;9.40;68.57
86038;BME280;76634;47.732;7.348;2024-03-29T08:36:06;96333.25;;;9.49;65.74
86038;BME280;76634;47.732;7.348;2024-03-29T08:38:33;96332.78;;;9.57;64.94
86038;BME280;76634;47.732;7.348;2024-03-29T08:40:59;96335.25;;;9.74;67.43
86038;BME280;76634;47.732;7.348;2024-03-29T08:43:24;96331.34;;;9.82;66.73
86038;BME280;76634;47.732;7.348;2024-03-29T08:45:49;96323.91;;;9.84;62.44
86038;BME280;76634;47.732;7.348;2024-03-29T08:48:15;96344.84;;;9.80;63.83
86038;BME280;76634;47.732;7.348;2024-03-29T08:50:40;96334.06;;;9.97;62.97
86038;BME280;76634;47.732;7.348;2024-03-29T08:53:06;96351.16;;;10.27;63.29
86038;BME280;76634;47.732;7.348;2024-03-29T08:55:33;96355.03;;;10.62;61.61
86038;BME280;76634;47.732;7.348;2024-03-29T08:57:59;96352.41;;;10.78;60.71
86038;BME280;76634;47.732;7.348;2024-03-29T09:00:28;96336.97;;;10.64;59.93
86038;BME280;76634;47.732;7.348;2024-03-29T09:02:54;96336.97;;;10.59;58.29
86038;BME280;76634;47.732;7.348;2024-03-29T09:05:21;96340.16;;;10.56;59.43
86038;BME280;76634;47.732;7.348;2024-03-29T09:07:47;96345.75;;;10.80;59.79
86038;BME280;76634;47.732;7.348;2024-03-29T09:10:13;96348.22;;;11.07;58.61
86038;BME280;76634;47.732;7.348;2024-03-29T09:12:38;96348.22;;;11.18;56.76
86038;BME280;76634;47.732;7.348;2024-03-29T09:15:05;96340.78;;;11.15;57.07
86038;BME280;76634;47.732;7.348;2024-03-29T09:17:34;96326.16;;;11.28;56.93
86038;BME280;76634;47.732;7.348;2024-03-29T09:20:00;96295.59;;;11.15;56.76
86038;BME280;76634;47.732;7.348;2024-03-29T09:22:25;96290.28;;;11.20;56.47
86038;BME280;76634;47.732;7.348;2024-03-29T09:24:50;96307.25;;;11.45;56.75
86038;BME280;76634;47.732;7.348;2024-03-29T09:27:16;96320.75;;;11.74;55.99
86038;BME280;76634;47.732;7.348;2024-03-29T09:29:42;96320.44;;;12.06;56.32
86038;BME280;76634;47.732;7.348;2024-03-29T09:32:08;96301.19;;;12.25;55.39
86038;BME280;76634;47.732;7.348;2024-03-29T09:34:33;96321.28;;;11.97;55.89
86038;BME280;76634;47.732;7.348;2024-03-29T09:36:59;96290.31;;;12.16;55.91
86038;BME280;76634;47.732;7.348;2024-03-29T09:39:24;96298.16;;;11.76;55.17
86038;BME280;76634;47.732;7.348;2024-03-29T09:41:50;96306.41;;;11.75;55.17
86038;BME280;76634;47.732;7.348;2024-03-29T09:44:16;96302.28;;;12.24;56.61
86038;BME280;76634;47.732;7.348;2024-03-29T09:46:42;96296.28;;;12.48;55.90
86038;BME280;76634;47.732;7.348;2024-03-29T09:49:08;96304.53;;;13.25;55.53
86038;BME280;76634;47.732;7.348;2024-03-29T09:51:34;96291.28;;;13.74;53.10
86038;BME280;76634;47.732;7.348;2024-03-29T09:54:00;96284.91;;;14.18;52.40
86038;BME280;76634;47.732;7.348;2024-03-29T09:56:27;96285.78;;;14.32;51.83
86038;BME280;76634;47.732;7.348;2024-03-29T09:58:52;96299.41;;;14.74;51.47
86038;BME280;76634;47.732;7.348;2024-03-29T10:01:18;96295.06;;;14.40;53.63
86038;BME280;76634;47.732;7.348;2024-03-29T10:03:45;96294.78;;;14.99;51.52
86038;BME280;76634;47.732;7.348;2024-03-29T10:06:13;96293.34;;;15.67;50.62
86038;BME280;76634;47.732;7.348;2024-03-29T10:08:39;96286.00;;;15.73;50.48
86038;BME280;76634;47.732;7.348;2024-03-29T10:11:04;96289.81;;;14.92;50.44
86038;BME280;76634;47.732;7.348;2024-03-29T10:13:30;96291.25;;;14.65;50.46
86038;BME280;76634;47.732;7.348;2024-03-29T10:15:56;96284.97;;;14.75;50.95
86038;BME280;76634;47.732;7.348;2024-03-29T10:18:25;96286.56;;;14.76;52.05
86038;BME280;76634;47.732;7.348;2024-03-29T10:21:05;96298.75;;;14.82;49.96
86038;BME280;76634;47.732;7.348;2024-03-29T10:23:31;96306.56;;;15.78;49.50
86038;BME280;76634;47.732;7.348;2024-03-29T10:25:57;96308.66;;;16.22;48.16
86038;BME280;76634;47.732;7.348;2024-03-29T10:28:23;96303.69;;;16.43;46.90
86038;BME280;76634;47.732;7.348;2024-03-29T10:30:49;96299.78;;;15.52;46.75
86038;BME280;76634;47.732;7.348;2024-03-29T10:33:17;96294.03;;;15.12;48.07
86038;BME280;76634;47.732;7.348;2024-03-29T10:35:43;96280.94;;;14.78;48.87
86038;BME280;76634;47.732;7.348;2024-03-29T10:38:12;96279.59;;;15.13;48.65
86038;BME280;76634;47.732;7.348;2024-03-29T10:40:41;96274.75;;;15.76;48.80
86038;BME280;76634;47.732;7.348;2024-03-29T10:43:11;96267.00;;;15.61;47.37
86038;BME280;76634;47.732;7.348;2024-03-29T10:45:39;96276.75;;;16.12;46.87
86038;BME280;76634;47.732;7.348;2024-03-29T10:48:05;96281.97;;;16.31;45.79
86038;BME280;76634;47.732;7.348;2024-03-29T10:50:37;96288.41;;;15.61;46.46
86038;BME280;76634;47.732;7.348;2024-03-29T10:53:05;96290.91;;;16.63;45.02
86038;BME280;76634;47.732;7.348;2024-03-29T10:55:33;96281.84;;;17.72;43.00
86038;BME280;76634;47.732;7.348;2024-03-29T10:58:00;96282.03;;;17.76;42.64
86038;BME280;76634;47.732;7.348;2024-03-29T11:00:28;96283.47;;;18.22;41.31
86038;BME280;76634;47.732;7.348;2024-03-29T11:05:32;96281.50;;;17.02;44.34
86038;BME280;76634;47.732;7.348;2024-03-29T11:07:59;96259.47;;;18.26;44.04
86038;BME280;76634;47.732;7.348;2024-03-29T11:10:39;96251.19;;;18.05;45.19
86038;BME280;76634;47.732;7.348;2024-03-29T11:13:30;96240.38;;;18.80;44.34
86038;BME280;76634;47.732;7.348;2024-03-29T11:15:59;96213.34;;;18.50;42.30
86038;BME280;76634;47.732;7.348;2024-03-29T11:18:26;96217.44;;;18.30;45.33
86038;BME280;76634;47.732;7.348;2024-03-29T11:20:53;96214.59;;;18.44;45.80
86038;BME280;76634;47.732;7.348;2024-03-29T11:23:20;96235.59;;;17.67;45.47
86038;BME280;76634;47.732;7.348;2024-03-29T11:25:51;96242.25;;;18.36;45.71
86038;BME280;76634;47.732;7.348;2024-03-29T11:28:28;96250.97;;;18.50;43.58
86038;BME280;76634;47.732;7.348;2024-03-29T11:30:59;96262.50;;;18.77;43.76
86038;BME280;76634;47.732;7.348;2024-03-29T11:33:29;96253.00;;;18.36;44.31
86038;BME280;76634;47.732;7.348;2024-03-29T11:35:55;96242.91;;;18.59;43.97
86038;BME280;76634;47.732;7.348;2024-03-29T11:38:21;96242.84;;;17.66;46.58
86038;BME280;76634;47.732;7.348;2024-03-29T11:41:14;96228.19;;;18.47;45.21
86038;BME280;76634;47.732;7.348;2024-03-29T11:43:40;96226.00;;;18.93;43.82
86038;BME280;76634;47.732;7.348;2024-03-29T11:46:08;96227.47;;;19.77;42.25
86038;BME280;76634;47.732;7.348;2024-03-29T11:48:34;96237.84;;;20.26;40.97
86038;BME280;76634;47.732;7.348;2024-03-29T11:51:05;96247.25;;;20.19;40.60
86038;BME280;76634;47.732;7.348;2024-03-29T11:53:31;96246.06;;;18.70;42.93
86038;BME280;76634;47.732;7.348;2024-03-29T11:55:58;96265.84;;;18.56;45.15
86038;BME280;76634;47.732;7.348;2024-03-29T11:58:25;96271.84;;;18.97;43.94
86038;BME280;76634;47.732;7.348;2024-03-29T12:00:52;96275.03;;;18.90;43.42
86038;BME280;76634;47.732;7.348;2024-03-29T12:03:18;96266.81;;;19.69;42.99
86038;BME280;76634;47.732;7.348;2024-03-29T12:05:45;96269.75;;;20.23;41.18
86038;BME280;76634;47.732;7.348;2024-03-29T12:08:13;96276.19;;;21.16;40.46
86038;BME280;76634;47.732;7.348;2024-03-29T12:10:39;96277.06;;;20.44;42.84
86038;BME280;76634;47.732;7.348;2024-03-29T12:13:05;96275.91;;;20.75;41.25
86038;BME280;76634;47.732;7.348;2024-03-29T12:15:30;96281.16;;;21.14;42.03
86038;BME280;76634;47.732;7.348;2024-03-29T12:18:02;96280.16;;;21.52;40.50
86038;BME280;76634;47.732;7.348;2024-03-29T12:20:29;96271.59;;;21.16;41.77
86038;BME280;76634;47.732;7.348;2024-03-29T12:22:56;96278.91;;;21.49;41.94
86038;BME280;76634;47.732;7.348;2024-03-29T12:25:24;96261.97;;;21.98;40.86
86038;BME280;76634;47.732;7.348;2024-03-29T12:27:49;96259.69;;;22.25;38.97
86038;BME280;76634;47.732;7.348;2024-03-29T12:30:15;96243.81;;;22.76;39.31
86038;BME280;76634;47.732;7.348;2024-03-29T12:32:41;96252.81;;;22.27;40.11
86038;BME280;76634;47.732;7.348;2024-03-29T12:35:14;96243.69;;;22.44;38.90
86038;BME280;76634;47.732;7.348;2024-03-29T12:37:50;96244.66;;;22.64;38.24
86038;BME280;76634;47.732;7.348;2024-03-29T12:40:16;96228.19;;;24.06;36.92
86038;BME280;76634;47.732;7.348;2024-03-29T12:42:47;96227.06;;;24.43;36.43
86038;BME280;76634;47.732;7.348;2024-03-29T12:45:13;96237.13;;;25.40;34.85
86038;BME280;76634;47.732;7.348;2024-03-29T12:47:38;96224.00;;;26.46;32.66
86038;BME280;76634;47.732;7.348;2024-03-29T12:50:04;96229.28;;;25.58;33.24
86038;BME280;76634;47.732;7.348;2024-03-29T12:52:40;96226.66;;;26.69;32.81
86038;BME280;76634;47.732;7.348;2024-03-29T12:55:06;96220.72;;;25.79;33.56
86038;BME280;76634;47.732;7.348;2024-03-29T12:57:42;96215.34;;;27.35;31.39
86038;BME280;76634;47.732;7.348;2024-03-29T13:00:10;96219.75;;;25.68;33.17
86038;BME280;76634;47.732;7.348;2024-03-29T13:02:36;96221.19;;;24.41;34.75
86038;BME280;76634;47.732;7.348;2024-03-29T13:05:02;96214.72;;;25.70;34.85
86038;BME280;76634;47.732;7.348;2024-03-29T13:07:28;96209.78;;;26.29;32.55